Main page
METAR-TAF:

METAR-TAF

Airports :

East Midlands Airport

East Midlands, England

latitude: 52-50N, longitude: 001-20W, elevation: 94 m

Current weather observation

The report was made 26 minutes ago, at 04:20 UTC
Wind 7 kt from the West
Temperature 15°C
Humidity 82%
Pressure 1015 hPa
Visibility 10 km or more
no clouds below 1500 m and no cumulonimbus

METAR: EGNX 220420Z 26007KT CAVOK 15/12 Q1015

Time: 05:46 (04:46 UTC)

Forecast

The report was made 5 hours and 36 minutes ago, at 23:10 UTC
Forecast valid from 22 at 00 UTC to 22 at 24 UTC
Wind 6 kt from the Northwest
Visibility 10 km or more
Few clouds at a height of 3500 ft
Probability 30%
from 22 at 03 UTC to 22 at 08 UTC
Visibility: 8000 m

TAF: EGNX 212310Z 2200/2224 31006KT 9999 FEW035 PROB30 2203/2208 8000

Weather observations and forecasts of more than 4000 airports (METAR and TAF reports).

The available stations are represented by yellow and red dots on the map.

Hover mouse over dot to see the name of the station.

Then click to see weather observations and forecasts.

To change the map : click on the green buttons with a black cross to zoom in, on the green button with a dash to zoom out, or on the green arrows for adjacent maps.


METAR-TAF: